sensor_id;sensor_type;location;lat;lon;timestamp;pressure;altitude;pressure_sealevel;temperature;humidity
15260;BME280;34462;51.368;12.364;2023-10-31T00:01:30;119224.81;;;-141.84;100.00
15260;BME280;34462;51.368;12.364;2023-10-31T00:03:58;119224.81;;;-141.84;100.00
15260;BME280;34462;51.368;12.364;2023-10-31T00:06:28;119224.81;;;-141.84;100.00
15260;BME280;34462;51.368;12.364;2023-10-31T00:08:56;119224.81;;;-141.84;100.00
15260;BME280;34462;51.368;12.364;2023-10-31T00:11:24;119224.81;;;-141.84;100.00
15260;BME280;34462;51.368;12.364;2023-10-31T00:13:53;119224.81;;;-141.84;100.00
15260;BME280;34462;51.368;12.364;2023-10-31T00:16:21;119224.81;;;-141.84;100.00
15260;BME280;34462;51.368;12.364;2023-10-31T00:18:49;119224.81;;;-141.84;100.00
15260;BME280;34462;51.368;12.364;2023-10-31T00:21:19;119224.81;;;-141.84;100.00
15260;BME280;34462;51.368;12.364;2023-10-31T00:23:49;119224.81;;;-141.84;100.00
15260;BME280;34462;51.368;12.364;2023-10-31T00:26:17;119224.81;;;-141.84;100.00
15260;BME280;34462;51.368;12.364;2023-10-31T00:28:45;119224.81;;;-141.84;100.00
15260;BME280;34462;51.368;12.364;2023-10-31T00:31:13;119224.81;;;-141.84;100.00
15260;BME280;34462;51.368;12.364;2023-10-31T00:33:42;119224.81;;;-141.84;100.00
15260;BME280;34462;51.368;12.364;2023-10-31T00:36:10;119224.81;;;-141.84;100.00
15260;BME280;34462;51.368;12.364;2023-10-31T00:38:38;119224.81;;;-141.84;100.00
15260;BME280;34462;51.368;12.364;2023-10-31T00:41:08;119224.81;;;-141.84;100.00
15260;BME280;34462;51.368;12.364;2023-10-31T00:43:36;119224.81;;;-141.84;100.00
15260;BME280;34462;51.368;12.364;2023-10-31T00:46:04;119224.81;;;-141.84;100.00
15260;BME280;34462;51.368;12.364;2023-10-31T00:48:32;119224.81;;;-141.84;100.00
15260;BME280;34462;51.368;12.364;2023-10-31T00:51:04;119224.81;;;-141.84;100.00
15260;BME280;34462;51.368;12.364;2023-10-31T00:53:32;119224.81;;;-141.84;100.00
15260;BME280;34462;51.368;12.364;2023-10-31T00:56:01;119224.81;;;-141.84;100.00
15260;BME280;34462;51.368;12.364;2023-10-31T00:58:31;119224.81;;;-141.84;100.00
15260;BME280;34462;51.368;12.364;2023-10-31T01:00:59;119224.81;;;-141.84;100.00
15260;BME280;34462;51.368;12.364;2023-10-31T01:03:27;119224.81;;;-141.84;100.00
15260;BME280;34462;51.368;12.364;2023-10-31T01:05:56;119224.81;;;-141.84;100.00
15260;BME280;34462;51.368;12.364;2023-10-31T01:08:24;119224.81;;;-141.84;100.00
15260;BME280;34462;51.368;12.364;2023-10-31T01:10:53;119224.81;;;-141.84;100.00
15260;BME280;34462;51.368;12.364;2023-10-31T01:13:21;119224.81;;;-141.84;100.00
15260;BME280;34462;51.368;12.364;2023-10-31T01:15:51;119224.81;;;-141.84;100.00
15260;BME280;34462;51.368;12.364;2023-10-31T01:18:19;119224.81;;;-141.84;100.00
15260;BME280;34462;51.368;12.364;2023-10-31T01:20:48;119224.81;;;-141.84;100.00
15260;BME280;34462;51.368;12.364;2023-10-31T01:23:16;119224.81;;;-141.84;100.00
15260;BME280;34462;51.368;12.364;2023-10-31T01:25:44;119224.81;;;-141.84;100.00
15260;BME280;34462;51.368;12.364;2023-10-31T01:28:12;119224.81;;;-141.84;100.00
15260;BME280;34462;51.368;12.364;2023-10-31T01:30:40;119224.81;;;-141.84;100.00
15260;BME280;34462;51.368;12.364;2023-10-31T01:33:10;119224.81;;;-141.84;100.00
15260;BME280;34462;51.368;12.364;2023-10-31T01:35:38;119224.81;;;-141.84;100.00
15260;BME280;34462;51.368;12.364;2023-10-31T01:38:06;119224.81;;;-141.84;100.00
15260;BME280;34462;51.368;12.364;2023-10-31T01:40:35;119224.81;;;-141.84;100.00
15260;BME280;34462;51.368;12.364;2023-10-31T01:43:03;119224.81;;;-141.84;100.00
15260;BME280;34462;51.368;12.364;2023-10-31T01:45:31;119224.81;;;-141.84;100.00
15260;BME280;34462;51.368;12.364;2023-10-31T01:47:59;119224.81;;;-141.84;100.00
15260;BME280;34462;51.368;12.364;2023-10-31T01:50:29;119224.81;;;-141.84;100.00
15260;BME280;34462;51.368;12.364;2023-10-31T01:52:58;119224.81;;;-141.84;100.00
15260;BME280;34462;51.368;12.364;2023-10-31T01:55:26;119224.81;;;-141.84;100.00
15260;BME280;34462;51.368;12.364;2023-10-31T01:57:56;119224.81;;;-141.84;100.00
15260;BME280;34462;51.368;12.364;2023-10-31T02:00:24;119224.81;;;-141.84;100.00
15260;BME280;34462;51.368;12.364;2023-10-31T02:02:53;119224.81;;;-141.84;100.00
15260;BME280;34462;51.368;12.364;2023-10-31T02:05:22;119224.81;;;-141.84;100.00
15260;BME280;34462;51.368;12.364;2023-10-31T02:07:52;119224.81;;;-141.84;100.00
15260;BME280;34462;51.368;12.364;2023-10-31T02:10:20;119224.81;;;-141.84;100.00
15260;BME280;34462;51.368;12.364;2023-10-31T02:12:48;119224.81;;;-141.84;100.00
15260;BME280;34462;51.368;12.364;2023-10-31T02:15:17;119224.81;;;-141.84;100.00
15260;BME280;34462;51.368;12.364;2023-10-31T02:17:45;119224.81;;;-141.84;100.00
15260;BME280;34462;51.368;12.364;2023-10-31T02:20:13;119224.81;;;-141.84;100.00
15260;BME280;34462;51.368;12.364;2023-10-31T02:22:43;119224.81;;;-141.84;100.00
15260;BME280;34462;51.368;12.364;2023-10-31T02:25:17;119224.81;;;-141.84;100.00
15260;BME280;34462;51.368;12.364;2023-10-31T02:27:46;119224.81;;;-141.84;100.00
15260;BME280;34462;51.368;12.364;2023-10-31T02:30:14;119224.81;;;-141.84;100.00
15260;BME280;34462;51.368;12.364;2023-10-31T02:32:43;119224.81;;;-141.84;100.00
15260;BME280;34462;51.368;12.364;2023-10-31T02:35:12;119224.81;;;-141.84;100.00
15260;BME280;34462;51.368;12.364;2023-10-31T02:37:42;119224.81;;;-141.84;100.00
15260;BME280;34462;51.368;12.364;2023-10-31T02:40:11;119224.81;;;-141.84;100.00
15260;BME280;34462;51.368;12.364;2023-10-31T02:42:40;119224.81;;;-141.84;100.00
15260;BME280;34462;51.368;12.364;2023-10-31T02:45:09;119224.81;;;-141.84;100.00
15260;BME280;34462;51.368;12.364;2023-10-31T02:47:37;119224.81;;;-141.84;100.00
15260;BME280;34462;51.368;12.364;2023-10-31T02:50:07;119224.81;;;-141.84;100.00
15260;BME280;34462;51.368;12.364;2023-10-31T02:52:35;119224.81;;;-141.84;100.00
15260;BME280;34462;51.368;12.364;2023-10-31T02:55:06;119224.81;;;-141.84;100.00
15260;BME280;34462;51.368;12.364;2023-10-31T02:57:34;119224.81;;;-141.84;100.00
15260;BME280;34462;51.368;12.364;2023-10-31T03:00:04;119224.81;;;-141.84;100.00
15260;BME280;34462;51.368;12.364;2023-10-31T03:02:32;119224.81;;;-141.84;100.00
15260;BME280;34462;51.368;12.364;2023-10-31T03:05:00;119224.81;;;-141.84;100.00
15260;BME280;34462;51.368;12.364;2023-10-31T03:07:29;119224.81;;;-141.84;100.00
15260;BME280;34462;51.368;12.364;2023-10-31T03:09:57;119224.81;;;-141.84;100.00
15260;BME280;34462;51.368;12.364;2023-10-31T03:12:27;119224.81;;;-141.84;100.00
15260;BME280;34462;51.368;12.364;2023-10-31T03:14:55;119224.81;;;-141.84;100.00
15260;BME280;34462;51.368;12.364;2023-10-31T03:17:24;119224.81;;;-141.84;100.00
15260;BME280;34462;51.368;12.364;2023-10-31T03:19:55;119224.81;;;-141.84;100.00
15260;BME280;34462;51.368;12.364;2023-10-31T03:22:23;119224.81;;;-141.84;100.00
15260;BME280;34462;51.368;12.364;2023-10-31T03:24:51;119224.81;;;-141.84;100.00
15260;BME280;34462;51.368;12.364;2023-10-31T03:27:19;119224.81;;;-141.84;100.00
15260;BME280;34462;51.368;12.364;2023-10-31T03:29:49;119224.81;;;-141.84;100.00
15260;BME280;34462;51.368;12.364;2023-10-31T03:32:17;119224.81;;;-141.84;100.00
15260;BME280;34462;51.368;12.364;2023-10-31T03:34:45;119224.81;;;-141.84;100.00
15260;BME280;34462;51.368;12.364;2023-10-31T03:37:14;119224.81;;;-141.84;100.00
15260;BME280;34462;51.368;12.364;2023-10-31T03:39:42;119224.81;;;-141.84;100.00
15260;BME280;34462;51.368;12.364;2023-10-31T03:42:10;119224.81;;;-141.84;100.00
15260;BME280;34462;51.368;12.364;2023-10-31T03:44:38;119224.81;;;-141.84;100.00
15260;BME280;34462;51.368;12.364;2023-10-31T03:47:08;119224.81;;;-141.84;100.00
15260;BME280;34462;51.368;12.364;2023-10-31T03:49:39;119224.81;;;-141.84;100.00
15260;BME280;34462;51.368;12.364;2023-10-31T03:52:07;119224.81;;;-141.84;100.00
15260;BME280;34462;51.368;12.364;2023-10-31T03:54:36;119224.81;;;-141.84;100.00
15260;BME280;34462;51.368;12.364;2023-10-31T03:57:04;119224.81;;;-141.84;100.00
15260;BME280;34462;51.368;12.364;2023-10-31T03:59:33;119224.81;;;-141.84;100.00
15260;BME280;34462;51.368;12.364;2023-10-31T04:02:01;119224.81;;;-141.84;100.00
15260;BME280;34462;51.368;12.364;2023-10-31T04:04:30;119224.81;;;-141.84;100.00
15260;BME280;34462;51.368;12.364;2023-10-31T04:06:58;119224.81;;;-141.84;100.00
15260;BME280;34462;51.368;12.364;2023-10-31T04:09:26;119224.81;;;-141.84;100.00
15260;BME280;34462;51.368;12.364;2023-10-31T04:11:55;119224.81;;;-141.84;100.00
15260;BME280;34462;51.368;12.364;2023-10-31T04:14:23;119224.81;;;-141.84;100.00
15260;BME280;34462;51.368;12.364;2023-10-31T04:16:51;119224.81;;;-141.84;100.00
15260;BME280;34462;51.368;12.364;2023-10-31T04:19:19;119224.81;;;-141.84;100.00
15260;BME280;34462;51.368;12.364;2023-10-31T04:21:49;119224.81;;;-141.84;100.00
15260;BME280;34462;51.368;12.364;2023-10-31T04:24:17;119224.81;;;-141.84;100.00
15260;BME280;34462;51.368;12.364;2023-10-31T04:26:45;119224.81;;;-141.84;100.00
15260;BME280;34462;51.368;12.364;2023-10-31T04:29:13;119224.81;;;-141.84;100.00
15260;BME280;34462;51.368;12.364;2023-10-31T04:31:41;119224.81;;;-141.84;100.00
15260;BME280;34462;51.368;12.364;2023-10-31T04:34:10;119224.81;;;-141.84;100.00
15260;BME280;34462;51.368;12.364;2023-10-31T04:36:39;119224.81;;;-141.84;100.00
15260;BME280;34462;51.368;12.364;2023-10-31T04:39:08;119224.81;;;-141.84;100.00
15260;BME280;34462;51.368;12.364;2023-10-31T04:41:37;119224.81;;;-141.84;100.00
15260;BME280;34462;51.368;12.364;2023-10-31T04:44:05;119224.81;;;-141.84;100.00
15260;BME280;34462;51.368;12.364;2023-10-31T04:46:34;119224.81;;;-141.84;100.00
15260;BME280;34462;51.368;12.364;2023-10-31T04:49:02;119224.81;;;-141.84;100.00
15260;BME280;34462;51.368;12.364;2023-10-31T04:51:33;119224.81;;;-141.84;100.00
15260;BME280;34462;51.368;12.364;2023-10-31T04:54:02;119224.81;;;-141.84;100.00
15260;BME280;34462;51.368;12.364;2023-10-31T04:56:33;119224.81;;;-141.84;100.00
15260;BME280;34462;51.368;12.364;2023-10-31T04:59:02;119224.81;;;-141.84;100.00
15260;BME280;34462;51.368;12.364;2023-10-31T05:01:30;119224.81;;;-141.84;100.00
15260;BME280;34462;51.368;12.364;2023-10-31T05:03:58;119224.81;;;-141.84;100.00
15260;BME280;34462;51.368;12.364;2023-10-31T05:06:39;119224.81;;;-141.84;100.00
15260;BME280;34462;51.368;12.364;2023-10-31T05:09:07;119224.81;;;-141.84;100.00
15260;BME280;34462;51.368;12.364;2023-10-31T05:11:39;119224.81;;;-141.84;100.00
15260;BME280;34462;51.368;12.364;2023-10-31T05:14:08;119224.81;;;-141.84;100.00
15260;BME280;34462;51.368;12.364;2023-10-31T05:16:41;119224.81;;;-141.84;100.00
15260;BME280;34462;51.368;12.364;2023-10-31T05:19:10;119224.81;;;-141.84;100.00
15260;BME280;34462;51.368;12.364;2023-10-31T05:21:38;119224.81;;;-141.84;100.00
15260;BME280;34462;51.368;12.364;2023-10-31T05:24:07;119224.81;;;-141.84;100.00
15260;BME280;34462;51.368;12.364;2023-10-31T05:26:36;119224.81;;;-141.84;100.00
15260;BME280;34462;51.368;12.364;2023-10-31T05:29:05;119224.81;;;-141.84;100.00
15260;BME280;34462;51.368;12.364;2023-10-31T05:31:34;119224.81;;;-141.84;100.00
15260;BME280;34462;51.368;12.364;2023-10-31T05:34:02;119224.81;;;-141.84;100.00
15260;BME280;34462;51.368;12.364;2023-10-31T05:36:31;119224.81;;;-141.84;100.00
15260;BME280;34462;51.368;12.364;2023-10-31T05:38:59;117622.84;;;-141.84;100.00
15260;BME280;34462;51.368;12.364;2023-10-31T05:41:27;113093.19;;;-141.84;100.00
15260;BME280;34462;51.368;12.364;2023-10-31T05:43:56;110164.91;;;-141.84;100.00
15260;BME280;34462;51.368;12.364;2023-10-31T05:46:25;106972.81;;;-141.84;100.00
15260;BME280;34462;51.368;12.364;2023-10-31T05:48:54;107238.72;;;-141.84;100.00
15260;BME280;34462;51.368;12.364;2023-10-31T05:51:22;108302.56;;;-141.84;100.00
15260;BME280;34462;51.368;12.364;2023-10-31T05:53:52;108834.56;;;-141.84;100.00
15260;BME280;34462;51.368;12.364;2023-10-31T05:56:20;110963.31;;;-141.84;100.00
15260;BME280;34462;51.368;12.364;2023-10-31T05:58:49;106175.19;;;-141.84;100.00
15260;BME280;34462;51.368;12.364;2023-10-31T06:01:17;103783.25;;;-141.84;100.00
15260;BME280;34462;51.368;12.364;2023-10-31T06:03:47;100330.69;;;-141.84;100.00
15260;BME280;34462;51.368;12.364;2023-10-31T06:06:15;101127.16;;;-141.84;100.00
15260;BME280;34462;51.368;12.364;2023-10-31T06:08:43;95820.25;;;-141.84;100.00
15260;BME280;34462;51.368;12.364;2023-10-31T06:11:12;91579.72;;;-141.84;100.00
15260;BME280;34462;51.368;12.364;2023-10-31T06:13:40;94229.53;;;-141.84;100.00
15260;BME280;34462;51.368;12.364;2023-10-31T06:16:08;97942.19;;;-141.84;100.00
15260;BME280;34462;51.368;12.364;2023-10-31T06:18:38;98738.19;;;-141.84;100.00
15260;BME280;34462;51.368;12.364;2023-10-31T06:21:09;99003.56;;;-141.84;100.00
15260;BME280;34462;51.368;12.364;2023-10-31T06:23:37;98207.50;;;-141.84;100.00
15260;BME280;34462;51.368;12.364;2023-10-31T06:26:05;89725.88;;;-141.84;100.00
15260;BME280;34462;51.368;12.364;2023-10-31T06:28:34;89990.66;;;-141.84;100.00
15260;BME280;34462;51.368;12.364;2023-10-31T06:31:11;95555.09;;;-141.84;100.00
15260;BME280;34462;51.368;12.364;2023-10-31T06:33:40;97146.31;;;-141.84;100.00
15260;BME280;34462;51.368;12.364;2023-10-31T06:36:10;87872.91;;;-141.84;100.00
15260;BME280;34462;51.368;12.364;2023-10-31T06:38:38;95555.09;;;-141.84;100.00
15260;BME280;34462;51.368;12.364;2023-10-31T06:41:06;79941.19;;;-141.84;100.00
15260;BME280;34462;51.368;12.364;2023-10-31T06:43:35;77564.72;;;-141.84;100.00
15260;BME280;34462;51.368;12.364;2023-10-31T06:46:04;75717.34;;;-141.84;100.00
15260;BME280;34462;51.368;12.364;2023-10-31T06:48:33;75453.50;;;-141.84;100.00
15260;BME280;34462;51.368;12.364;2023-10-31T06:51:01;60180.38;;;-141.84;100.00
15260;BME280;34462;51.368;12.364;2023-10-31T06:53:30;72288.75;;;-141.84;100.00
15260;BME280;34462;51.368;12.364;2023-10-31T06:55:58;53615.19;;;-141.84;100.00
15260;BME280;34462;51.368;12.364;2023-10-31T06:58:27;63598.59;;;-141.84;100.00
15260;BME280;34462;51.368;12.364;2023-10-31T07:00:55;47322.81;;;-141.84;100.00
15260;BME280;34462;51.368;12.364;2023-10-31T07:03:26;41825.19;;;-141.84;100.00
15260;BME280;34462;51.368;12.364;2023-10-31T07:05:54;39256.94;;;-141.84;100.00
15260;BME280;34462;51.368;12.364;2023-10-31T07:08:23;38732.06;;;-141.84;100.00
15260;BME280;34462;51.368;12.364;2023-10-31T07:10:53;28825.56;;;-141.84;100.00
15260;BME280;34462;51.368;12.364;2023-10-31T07:13:21;35767.88;;;-141.84;100.00
15260;BME280;34462;51.368;12.364;2023-10-31T07:15:49;32638.75;;;-141.84;100.00
15260;BME280;34462;51.368;12.364;2023-10-31T07:18:17;35625.03;;;-141.84;100.00
15260;BME280;34462;51.368;12.364;2023-10-31T07:20:46;24098.38;;;-141.84;100.00
15260;BME280;34462;51.368;12.364;2023-10-31T07:23:14;21517.31;;;-141.84;99.75
15260;BME280;34462;51.368;12.364;2023-10-31T07:25:42;21354.66;;;-141.84;99.24
15260;BME280;34462;51.368;12.364;2023-10-31T07:28:13;22279.88;;;-141.84;100.00
15260;BME280;34462;51.368;12.364;2023-10-31T07:30:41;22037.88;;;-141.84;100.00
15260;BME280;34462;51.368;12.364;2023-10-31T07:33:09;20183.75;;;-141.84;97.08
15260;BME280;34462;51.368;12.364;2023-10-31T07:35:38;20541.50;;;-141.84;98.23
15260;BME280;34462;51.368;12.364;2023-10-31T07:38:06;21850.78;;;-141.84;100.00
15260;BME280;34462;51.368;12.364;2023-10-31T07:40:34;19738.66;;;-141.84;94.74
15260;BME280;34462;51.368;12.364;2023-10-31T07:43:03;19511.03;;;-141.84;92.51
15260;BME280;34462;51.368;12.364;2023-10-31T07:45:32;19559.81;;;-141.84;93.23
15260;BME280;34462;51.368;12.364;2023-10-31T07:48:02;19482.56;;;-141.84;91.19
15260;BME280;34462;51.368;12.364;2023-10-31T07:50:31;19383.00;;;-141.84;89.97
15260;BME280;34462;51.368;12.364;2023-10-31T07:52:59;19378.94;;;-141.84;89.68
15260;BME280;34462;51.368;12.364;2023-10-31T07:55:27;19448.03;;;-141.84;92.40
15260;BME280;34462;51.368;12.364;2023-10-31T07:57:55;19452.09;;;-141.84;92.35
15260;BME280;34462;51.368;12.364;2023-10-31T08:00:23;19462.25;;;-141.84;91.64
15260;BME280;34462;51.368;12.364;2023-10-31T08:02:53;19433.81;;;-141.84;90.85
15260;BME280;34462;51.368;12.364;2023-10-31T08:05:23;19423.66;;;-141.84;90.12
15260;BME280;34462;51.368;12.364;2023-10-31T08:07:51;19389.09;;;-141.84;89.60
15260;BME280;34462;51.368;12.364;2023-10-31T08:10:19;19409.41;;;-141.84;89.13
15260;BME280;34462;51.368;12.364;2023-10-31T08:12:47;19366.75;;;-141.84;87.42
15260;BME280;34462;51.368;12.364;2023-10-31T08:15:16;19299.69;;;-141.84;86.19
15260;BME280;34462;51.368;12.364;2023-10-31T08:17:44;19326.09;;;-141.84;83.63
15260;BME280;34462;51.368;12.364;2023-10-31T08:20:14;19287.50;;;-141.84;83.57
15260;BME280;34462;51.368;12.364;2023-10-31T08:22:42;19315.94;;;-141.84;83.24
15260;BME280;34462;51.368;12.364;2023-10-31T08:25:11;19334.22;;;-141.84;82.35
15260;BME280;34462;51.368;12.364;2023-10-31T08:27:39;19287.50;;;-141.84;81.31
15260;BME280;34462;51.368;12.364;2023-10-31T08:30:09;19305.78;;;-141.84;81.96
15260;BME280;34462;51.368;12.364;2023-10-31T08:32:37;19301.72;;;-141.84;82.66
15260;BME280;34462;51.368;12.364;2023-10-31T08:35:06;19338.28;;;-141.84;82.49
15260;BME280;34462;51.368;12.364;2023-10-31T08:37:36;19313.91;;;-141.84;80.23
15260;BME280;34462;51.368;12.364;2023-10-31T08:40:07;19362.69;;;-141.84;80.53
15260;BME280;34462;51.368;12.364;2023-10-31T08:42:35;19313.91;;;-141.84;80.00
15260;BME280;34462;51.368;12.364;2023-10-31T08:45:05;19350.50;;;-141.84;79.29
15260;BME280;34462;51.368;12.364;2023-10-31T08:47:33;19354.56;;;-141.84;77.45
15260;BME280;34462;51.368;12.364;2023-10-31T08:50:02;19354.56;;;-141.84;75.39
15260;BME280;34462;51.368;12.364;2023-10-31T08:52:30;19360.66;;;-141.84;77.67
15260;BME280;34462;51.368;12.364;2023-10-31T08:54:59;19423.66;;;-141.84;76.51
15260;BME280;34462;51.368;12.364;2023-10-31T08:57:28;19354.56;;;-141.84;75.70
15260;BME280;34462;51.368;12.364;2023-10-31T08:59:56;19393.16;;;-141.84;73.88
15260;BME280;34462;51.368;12.364;2023-10-31T09:02:24;19395.19;;;-141.84;74.41
15260;BME280;34462;51.368;12.364;2023-10-31T09:04:52;19415.50;;;-141.84;74.06
15260;BME280;34462;51.368;12.364;2023-10-31T09:07:21;19395.19;;;-141.84;74.84
15260;BME280;34462;51.368;12.364;2023-10-31T09:09:49;19352.53;;;-141.84;74.78
15260;BME280;34462;51.368;12.364;2023-10-31T09:12:18;19380.97;;;-141.84;77.02
15260;BME280;34462;51.368;12.364;2023-10-31T09:14:47;19368.78;;;-141.84;76.83
15260;BME280;34462;51.368;12.364;2023-10-31T09:17:15;19348.47;;;-141.84;79.22
15260;BME280;34462;51.368;12.364;2023-10-31T09:19:43;19344.41;;;-141.84;79.17
15260;BME280;34462;51.368;12.364;2023-10-31T09:22:11;19342.34;;;-141.84;79.12
15260;BME280;34462;51.368;12.364;2023-10-31T09:24:39;19317.97;;;-141.84;81.11
15260;BME280;34462;51.368;12.364;2023-10-31T09:27:12;19370.81;;;-141.84;79.30
15260;BME280;34462;51.368;12.364;2023-10-31T09:29:42;19370.81;;;-141.84;78.27
15260;BME280;34462;51.368;12.364;2023-10-31T09:32:10;19360.66;;;-141.84;77.47
15260;BME280;34462;51.368;12.364;2023-10-31T09:34:38;19358.63;;;-141.84;77.95
15260;BME280;34462;51.368;12.364;2023-10-31T09:37:07;19378.94;;;-141.84;77.80
15260;BME280;34462;51.368;12.364;2023-10-31T09:39:35;19421.63;;;-141.84;78.71
15260;BME280;34462;51.368;12.364;2023-10-31T09:42:04;19383.00;;;-141.84;76.93
15260;BME280;34462;51.368;12.364;2023-10-31T09:44:33;19383.00;;;-141.84;77.24
15260;BME280;34462;51.368;12.364;2023-10-31T09:47:03;19380.97;;;-141.84;75.49
15260;BME280;34462;51.368;12.364;2023-10-31T09:49:33;19397.22;;;-141.84;76.33
15260;BME280;34462;51.368;12.364;2023-10-31T09:52:03;19397.22;;;-141.84;75.66
15260;BME280;34462;51.368;12.364;2023-10-31T09:54:31;19452.09;;;-141.84;75.12
15260;BME280;34462;51.368;12.364;2023-10-31T09:56:59;19415.50;;;-141.84;75.35
15260;BME280;34462;51.368;12.364;2023-10-31T09:59:28;19391.13;;;-141.84;73.89
15260;BME280;34462;51.368;12.364;2023-10-31T10:01:56;19409.41;;;-141.84;72.51
15260;BME280;34462;51.368;12.364;2023-10-31T10:04:27;19464.28;;;-141.84;72.23
15260;BME280;34462;51.368;12.364;2023-10-31T10:06:59;19439.91;;;-141.84;71.71
15260;BME280;34462;51.368;12.364;2023-10-31T10:09:28;19460.22;;;-141.84;70.73
15260;BME280;34462;51.368;12.364;2023-10-31T10:11:59;19509.00;;;-141.84;67.10
15260;BME280;34462;51.368;12.364;2023-10-31T10:14:28;19500.88;;;-141.84;66.95
15260;BME280;34462;51.368;12.364;2023-10-31T10:16:58;19519.16;;;-141.84;69.50
15260;BME280;34462;51.368;12.364;2023-10-31T10:19:29;19504.94;;;-141.84;66.88
15260;BME280;34462;51.368;12.364;2023-10-31T10:21:58;19529.31;;;-141.84;68.74
15260;BME280;34462;51.368;12.364;2023-10-31T10:24:27;19498.84;;;-141.84;67.90
15260;BME280;34462;51.368;12.364;2023-10-31T10:26:55;19513.06;;;-141.84;69.15
15260;BME280;34462;51.368;12.364;2023-10-31T10:29:24;19517.13;;;-141.84;68.78
15260;BME280;34462;51.368;12.364;2023-10-31T10:31:53;19523.22;;;-141.84;66.94
15260;BME280;34462;51.368;12.364;2023-10-31T10:34:22;19531.34;;;-141.84;65.62
15260;BME280;34462;51.368;12.364;2023-10-31T10:36:53;19549.63;;;-141.84;66.11
15260;BME280;34462;51.368;12.364;2023-10-31T10:39:24;19553.72;;;-141.84;67.34
15260;BME280;34462;51.368;12.364;2023-10-31T10:41:54;19567.94;;;-141.84;66.43
15260;BME280;34462;51.368;12.364;2023-10-31T10:44:32;19504.94;;;-141.84;66.28
15260;BME280;34462;51.368;12.364;2023-10-31T10:47:04;19531.34;;;-141.84;68.08
15260;BME280;34462;51.368;12.364;2023-10-31T10:49:35;19476.47;;;-141.84;69.04
15260;BME280;34462;51.368;12.364;2023-10-31T10:52:22;19539.47;;;-141.84;67.83
15260;BME280;34462;51.368;12.364;2023-10-31T10:54:54;19549.63;;;-141.84;66.91
15260;BME280;34462;51.368;12.364;2023-10-31T10:57:37;19578.09;;;-141.84;66.98
15260;BME280;34462;51.368;12.364;2023-10-31T11:00:09;19586.22;;;-141.84;63.96
15260;BME280;34462;51.368;12.364;2023-10-31T11:02:40;19567.94;;;-141.84;63.96
15260;BME280;34462;51.368;12.364;2023-10-31T11:05:10;19596.38;;;-141.84;64.95
15260;BME280;34462;51.368;12.364;2023-10-31T11:07:40;19606.53;;;-141.84;64.80
15260;BME280;34462;51.368;12.364;2023-10-31T11:10:10;19598.41;;;-141.84;63.75
15260;BME280;34462;51.368;12.364;2023-10-31T11:12:39;19624.84;;;-141.84;64.13
15260;BME280;34462;51.368;12.364;2023-10-31T11:15:11;19626.88;;;-141.84;64.38
15260;BME280;34462;51.368;12.364;2023-10-31T11:17:43;19525.25;;;-141.84;66.58
15260;BME280;34462;51.368;12.364;2023-10-31T11:20:16;19547.59;;;-141.84;66.56
15260;BME280;34462;51.368;12.364;2023-10-31T11:22:47;19561.84;;;-141.84;66.20
15260;BME280;34462;51.368;12.364;2023-10-31T11:25:19;19572.00;;;-141.84;65.81
15260;BME280;34462;51.368;12.364;2023-10-31T11:28:13;19628.91;;;-141.84;63.61
15260;BME280;34462;51.368;12.364;2023-10-31T11:30:42;19559.81;;;-141.84;65.04
15260;BME280;34462;51.368;12.364;2023-10-31T11:33:16;19569.97;;;-141.84;64.06
15260;BME280;34462;51.368;12.364;2023-10-31T11:35:50;19543.53;;;-141.84;65.75
15260;BME280;34462;51.368;12.364;2023-10-31T11:38:32;19549.63;;;-141.84;65.28
15260;BME280;34462;51.368;12.364;2023-10-31T11:41:02;19549.63;;;-141.84;65.29
15260;BME280;34462;51.368;12.364;2023-10-31T11:43:51;19541.50;;;-141.84;67.40
15260;BME280;34462;51.368;12.364;2023-10-31T11:46:22;19509.00;;;-141.84;66.66
15260;BME280;34462;51.368;12.364;2023-10-31T11:48:53;19482.56;;;-141.84;67.00
15260;BME280;34462;51.368;12.364;2023-10-31T11:51:23;19476.47;;;-141.84;67.23
15260;BME280;34462;51.368;12.364;2023-10-31T11:53:52;19454.13;;;-141.84;70.14
15260;BME280;34462;51.368;12.364;2023-10-31T11:56:22;19464.28;;;-141.84;73.20
15260;BME280;34462;51.368;12.364;2023-10-31T11:59:03;19492.75;;;-141.84;71.19
15260;BME280;34462;51.368;12.364;2023-10-31T12:01:31;19452.09;;;-141.84;73.29
15260;BME280;34462;51.368;12.364;2023-10-31T12:04:00;19448.03;;;-141.84;77.75
15260;BME280;34462;51.368;12.364;2023-10-31T12:06:33;19456.16;;;-141.84;81.31
15260;BME280;34462;51.368;12.364;2023-10-31T12:09:03;19435.84;;;-141.84;78.29
15260;BME280;34462;51.368;12.364;2023-10-31T12:11:31;19458.19;;;-141.84;77.37
15260;BME280;34462;51.368;12.364;2023-10-31T12:14:00;19464.28;;;-141.84;77.28
15260;BME280;34462;51.368;12.364;2023-10-31T12:16:32;19470.38;;;-141.84;73.54
15260;BME280;34462;51.368;12.364;2023-10-31T12:19:02;19466.31;;;-141.84;73.02
15260;BME280;34462;51.368;12.364;2023-10-31T12:21:39;19488.69;;;-141.84;71.29
15260;BME280;34462;51.368;12.364;2023-10-31T12:24:12;19565.91;;;-141.84;68.26
15260;BME280;34462;51.368;12.364;2023-10-31T12:26:41;19626.88;;;-141.84;66.79
15260;BME280;34462;51.368;12.364;2023-10-31T12:29:11;19618.75;;;-141.84;64.15
15260;BME280;34462;51.368;12.364;2023-10-31T12:31:43;19622.81;;;-141.84;64.44